メインページ
METAR-TAF:

METAR-TAF

空港 :

ベイルート, レバノン

緯度: 33-49N, 経度: 035-29E, 海抜: 29m

現時点の気象観測

当レポートは55分前の20:00(UTC)に作成
東/南東の風 4kt
気温 15°C
湿度 51%
気圧 1024 hPa
高度20000ftの雲はほとんどない

METAR: OLBA 112000Z 11004KT FEW200 15/05 Q1024 NOSIG

時間: 22:55 (20:55 UTC)

予報

当レポートは4時間55分前の16:00(UTC)に作成
予報は11日の 18時(UTC)から 12日の 24時(UTC)まで有効
変向風 5kt
視程: 8000m
高度20000ftの千切れ雲あり
12日の 09時(UTC)から 12日の 12時(UTC)まで徐々に
北/北東の風 8kt
12日の 18時(UTC)から 12日の 21時(UTC)まで徐々に
変向風 5kt
高度20000ftの雲は散在している

TAF: OLBA 111600Z 1118/1224 VRB05KT 8000 BKN200 BECMG 1209/1212 03008KT BECMG 1218/1221 VRB05KT SCT200

4,000以上の空港の気象観測と天気予報(METAR報とTAF報)

利用可能な観測所は地図上に黄色い丸と赤い丸で示す。

丸の上にカーソルを重ねると観測所名を参照できる。

次にクリックすると気象観測と天気予報を参照できる。

マップの切り替え:黒色「×」印の緑ボタンをクリックして拡大、「-」印の緑ボタンをクリックして縮小、緑色の三角印をクリックして隣りの地図に切り替え


METAR-TAF: